sensor_id;sensor_type;location;lat;lon;timestamp;temperature;humidity
5828;DHT22;42583;50.240;8.444;2023-04-24T00:01:38;8.90;99.90
5828;DHT22;42583;50.240;8.444;2023-04-24T00:16:39;8.80;99.90
5828;DHT22;42583;50.240;8.444;2023-04-24T00:31:40;8.70;99.90
5828;DHT22;42583;50.240;8.444;2023-04-24T00:46:41;8.70;99.90
5828;DHT22;42583;50.240;8.444;2023-04-24T01:01:43;8.60;99.90
5828;DHT22;42583;50.240;8.444;2023-04-24T01:16:44;8.60;99.90
5828;DHT22;42583;50.240;8.444;2023-04-24T01:31:45;8.50;99.90
5828;DHT22;42583;50.240;8.444;2023-04-24T01:46:46;8.50;99.90
5828;DHT22;42583;50.240;8.444;2023-04-24T02:01:46;8.50;99.90
5828;DHT22;42583;50.240;8.444;2023-04-24T02:16:47;8.40;99.90
5828;DHT22;42583;50.240;8.444;2023-04-24T02:31:48;8.40;99.90
5828;DHT22;42583;50.240;8.444;2023-04-24T02:46:48;8.30;99.90
5828;DHT22;42583;50.240;8.444;2023-04-24T03:01:49;8.20;99.90
5828;DHT22;42583;50.240;8.444;2023-04-24T03:16:49;7.90;99.90
5828;DHT22;42583;50.240;8.444;2023-04-24T03:31:50;7.80;99.90
5828;DHT22;42583;50.240;8.444;2023-04-24T03:46:51;7.60;99.90
5828;DHT22;42583;50.240;8.444;2023-04-24T04:01:51;7.60;99.90
5828;DHT22;42583;50.240;8.444;2023-04-24T04:16:52;7.60;99.90
5828;DHT22;42583;50.240;8.444;2023-04-24T04:31:52;7.30;99.90
5828;DHT22;42583;50.240;8.444;2023-04-24T04:46:53;7.10;99.90
5828;DHT22;42583;50.240;8.444;2023-04-24T05:01:56;6.90;99.90
5828;DHT22;42583;50.240;8.444;2023-04-24T05:32:56;6.40;99.90
5828;DHT22;42583;50.240;8.444;2023-04-24T05:47:57;6.30;99.90
5828;DHT22;42583;50.240;8.444;2023-04-24T06:02:59;6.30;99.90
5828;DHT22;42583;50.240;8.444;2023-04-24T06:18:00;6.40;99.90
5828;DHT22;42583;50.240;8.444;2023-04-24T06:33:01;6.50;99.90
5828;DHT22;42583;50.240;8.444;2023-04-24T06:48:01;6.70;99.90
5828;DHT22;42583;50.240;8.444;2023-04-24T07:03:03;7.30;99.90
5828;DHT22;42583;50.240;8.444;2023-04-24T07:18:05;8.20;99.90
5828;DHT22;42583;50.240;8.444;2023-04-24T07:33:06;8.40;99.90
5828;DHT22;42583;50.240;8.444;2023-04-24T07:48:07;8.70;99.90
5828;DHT22;42583;50.240;8.444;2023-04-24T08:03:09;8.70;99.90
5828;DHT22;42583;50.240;8.444;2023-04-24T08:18:09;8.80;99.90
5828;DHT22;42583;50.240;8.444;2023-04-24T08:33:12;9.20;99.90
5828;DHT22;42583;50.240;8.444;2023-04-24T08:48:13;8.90;99.90
5828;DHT22;42583;50.240;8.444;2023-04-24T09:03:15;8.60;99.90
5828;DHT22;42583;50.240;8.444;2023-04-24T09:18:17;8.50;99.90
5828;DHT22;42583;50.240;8.444;2023-04-24T09:33:17;8.20;99.90
5828;DHT22;42583;50.240;8.444;2023-04-24T09:48:38;8.10;99.90
5828;DHT22;42583;50.240;8.444;2023-04-24T10:03:42;7.80;99.90
5828;DHT22;42583;50.240;8.444;2023-04-24T10:18:43;7.90;99.90
5828;DHT22;42583;50.240;8.444;2023-04-24T10:33:46;7.70;99.90
5828;DHT22;42583;50.240;8.444;2023-04-24T10:48:53;7.70;99.90
5828;DHT22;42583;50.240;8.444;2023-04-24T11:04:00;7.90;99.90
5828;DHT22;42583;50.240;8.444;2023-04-24T11:19:07;7.90;99.90
5828;DHT22;42583;50.240;8.444;2023-04-24T11:34:10;7.90;99.90
5828;DHT22;42583;50.240;8.444;2023-04-24T11:49:12;7.90;99.90
5828;DHT22;42583;50.240;8.444;2023-04-24T12:04:13;8.10;99.90
5828;DHT22;42583;50.240;8.444;2023-04-24T12:19:23;8.70;99.90
5828;DHT22;42583;50.240;8.444;2023-04-24T12:34:25;10.20;99.90
5828;DHT22;42583;50.240;8.444;2023-04-24T12:49:26;10.50;99.90
5828;DHT22;42583;50.240;8.444;2023-04-24T13:04:27;9.80;99.80
5828;DHT22;42583;50.240;8.444;2023-04-24T13:19:27;9.70;99.90
5828;DHT22;42583;50.240;8.444;2023-04-24T13:34:28;9.50;99.90
5828;DHT22;42583;50.240;8.444;2023-04-24T13:49:29;9.00;99.90
5828;DHT22;42583;50.240;8.444;2023-04-24T14:04:29;9.30;99.90
5828;DHT22;42583;50.240;8.444;2023-04-24T14:19:30;9.90;99.90
5828;DHT22;42583;50.240;8.444;2023-04-24T14:34:30;10.20;99.90
5828;DHT22;42583;50.240;8.444;2023-04-24T14:49:31;9.50;99.90
5828;DHT22;42583;50.240;8.444;2023-04-24T15:04:31;9.60;99.90
5828;DHT22;42583;50.240;8.444;2023-04-24T15:19:32;9.70;98.40
5828;DHT22;42583;50.240;8.444;2023-04-24T15:34:33;9.70;97.30
5828;DHT22;42583;50.240;8.444;2023-04-24T15:49:34;9.50;96.60
5828;DHT22;42583;50.240;8.444;2023-04-24T16:04:35;9.70;97.00
5828;DHT22;42583;50.240;8.444;2023-04-24T16:19:35;10.10;93.60
5828;DHT22;42583;50.240;8.444;2023-04-24T16:34:36;9.90;92.70
5828;DHT22;42583;50.240;8.444;2023-04-24T16:49:37;9.70;92.70
5828;DHT22;42583;50.240;8.444;2023-04-24T17:04:39;9.50;94.90
5828;DHT22;42583;50.240;8.444;2023-04-24T17:19:43;9.60;97.00
5828;DHT22;42583;50.240;8.444;2023-04-24T17:34:55;9.60;97.40
5828;DHT22;42583;50.240;8.444;2023-04-24T17:49:56;10.30;95.20
5828;DHT22;42583;50.240;8.444;2023-04-24T18:04:56;9.50;96.60
5828;DHT22;42583;50.240;8.444;2023-04-24T18:19:57;8.90;97.90
5828;DHT22;42583;50.240;8.444;2023-04-24T18:34:58;8.60;99.30
5828;DHT22;42583;50.240;8.444;2023-04-24T18:49:59;8.50;99.90
5828;DHT22;42583;50.240;8.444;2023-04-24T19:04:59;8.40;99.90
5828;DHT22;42583;50.240;8.444;2023-04-24T19:20:00;8.20;99.90
5828;DHT22;42583;50.240;8.444;2023-04-24T19:35:00;7.90;99.90
5828;DHT22;42583;50.240;8.444;2023-04-24T19:50:01;7.70;99.90
5828;DHT22;42583;50.240;8.444;2023-04-24T20:05:02;7.60;99.90
5828;DHT22;42583;50.240;8.444;2023-04-24T20:20:06;7.40;99.90
5828;DHT22;42583;50.240;8.444;2023-04-24T20:35:08;7.30;99.90
5828;DHT22;42583;50.240;8.444;2023-04-24T20:50:09;7.10;99.90
5828;DHT22;42583;50.240;8.444;2023-04-24T21:05:09;7.00;99.90
5828;DHT22;42583;50.240;8.444;2023-04-24T21:20:13;6.90;99.90
5828;DHT22;42583;50.240;8.444;2023-04-24T21:35:14;6.80;99.90
5828;DHT22;42583;50.240;8.444;2023-04-24T21:50:14;6.70;99.90
5828;DHT22;42583;50.240;8.444;2023-04-24T22:05:15;6.80;99.90
5828;DHT22;42583;50.240;8.444;2023-04-24T22:20:17;6.70;99.90
5828;DHT22;42583;50.240;8.444;2023-04-24T22:35:18;6.70;99.90
5828;DHT22;42583;50.240;8.444;2023-04-24T22:50:19;6.60;99.90
5828;DHT22;42583;50.240;8.444;2023-04-24T23:05:23;6.70;99.90
5828;DHT22;42583;50.240;8.444;2023-04-24T23:20:24;6.70;99.90
5828;DHT22;42583;50.240;8.444;2023-04-24T23:51:22;6.70;99.90
